sensor_id;sensor_type;location;lat;lon;timestamp;pressure;altitude;pressure_sealevel;temperature;humidity
6853;BME280;3465;42.144;24.722;2023-07-31T00:00:57;148577.66;;;22.60;53.50
6853;BME280;3465;42.144;24.722;2023-07-31T00:03:23;148565.00;;;22.55;53.74
6853;BME280;3465;42.144;24.722;2023-07-31T00:05:48;148568.81;;;22.56;53.56
6853;BME280;3465;42.144;24.722;2023-07-31T00:08:14;148586.53;;;22.63;53.48
6853;BME280;3465;42.144;24.722;2023-07-31T00:10:39;148580.16;;;22.61;53.42
6853;BME280;3465;42.144;24.722;2023-07-31T00:13:05;148559.94;;;22.53;53.85
6853;BME280;3465;42.144;24.722;2023-07-31T00:15:30;148540.94;;;22.45;54.14
6853;BME280;3465;42.144;24.722;2023-07-31T00:17:55;148546.00;;;22.47;54.10
6853;BME280;3465;42.144;24.722;2023-07-31T00:20:21;148562.50;;;22.54;53.98
6853;BME280;3465;42.144;24.722;2023-07-31T00:22:46;148573.88;;;22.58;53.96
6853;BME280;3465;42.144;24.722;2023-07-31T00:25:12;148561.22;;;22.53;53.91
6853;BME280;3465;42.144;24.722;2023-07-31T00:27:37;148552.31;;;22.50;54.18
6853;BME280;3465;42.144;24.722;2023-07-31T00:30:03;148547.28;;;22.48;54.16
6853;BME280;3465;42.144;24.722;2023-07-31T00:32:28;148506.81;;;22.32;54.35
6853;BME280;3465;42.144;24.722;2023-07-31T00:34:54;148525.78;;;22.39;54.64
6853;BME280;3465;42.144;24.722;2023-07-31T00:37:19;148514.41;;;22.35;54.98
6853;BME280;3465;42.144;24.722;2023-07-31T00:39:44;148516.91;;;22.36;54.71
6853;BME280;3465;42.144;24.722;2023-07-31T00:42:10;148516.91;;;22.36;55.12
6853;BME280;3465;42.144;24.722;2023-07-31T00:44:35;148395.53;;;21.88;54.67
6853;BME280;3465;42.144;24.722;2023-07-31T00:47:01;148566.28;;;22.55;54.61
6853;BME280;3465;42.144;24.722;2023-07-31T00:49:26;148586.53;;;22.63;54.48
6853;BME280;3465;42.144;24.722;2023-07-31T00:51:53;148601.69;;;22.70;54.48
6853;BME280;3465;42.144;24.722;2023-07-31T00:54:18;148618.13;;;22.76;54.34
6853;BME280;3465;42.144;24.722;2023-07-31T00:56:45;148637.09;;;22.84;53.61
6853;BME280;3465;42.144;24.722;2023-07-31T00:59:11;148632.06;;;22.82;53.55
6853;BME280;3465;42.144;24.722;2023-07-31T01:01:36;148597.91;;;22.68;53.70
6853;BME280;3465;42.144;24.722;2023-07-31T01:04:02;148559.94;;;22.53;54.89
6853;BME280;3465;42.144;24.722;2023-07-31T01:06:34;148552.31;;;22.50;54.66
6853;BME280;3465;42.144;24.722;2023-07-31T01:12:04;148585.25;;;22.63;54.99
6853;BME280;3465;42.144;24.722;2023-07-31T01:14:31;148570.06;;;22.57;55.10
6853;BME280;3465;42.144;24.722;2023-07-31T01:16:57;148552.31;;;22.50;55.69
6853;BME280;3465;42.144;24.722;2023-07-31T01:19:24;148547.28;;;22.48;55.90
6853;BME280;3465;42.144;24.722;2023-07-31T01:27:34;148547.28;;;22.48;55.81
6853;BME280;3465;42.144;24.722;2023-07-31T01:30:19;148501.75;;;22.30;55.76
6853;BME280;3465;42.144;24.722;2023-07-31T01:32:48;148546.00;;;22.47;56.13
6853;BME280;3465;42.144;24.722;2023-07-31T01:35:15;148473.94;;;22.19;56.45
6853;BME280;3465;42.144;24.722;2023-07-31T01:37:40;148527.06;;;22.40;56.65
6853;BME280;3465;42.144;24.722;2023-07-31T01:40:06;148532.06;;;22.42;57.00
6853;BME280;3465;42.144;24.722;2023-07-31T01:42:32;148519.41;;;22.37;57.50
6853;BME280;3465;42.144;24.722;2023-07-31T01:44:57;148501.75;;;22.30;58.28
6853;BME280;3465;42.144;24.722;2023-07-31T01:47:23;148496.69;;;22.28;57.96
6853;BME280;3465;42.144;24.722;2023-07-31T01:49:49;148478.97;;;22.21;58.30
6853;BME280;3465;42.144;24.722;2023-07-31T01:52:14;148476.44;;;22.20;58.68
6853;BME280;3465;42.144;24.722;2023-07-31T01:54:39;148476.44;;;22.20;58.69
6853;BME280;3465;42.144;24.722;2023-07-31T01:57:05;148468.88;;;22.17;58.39
6853;BME280;3465;42.144;24.722;2023-07-31T01:59:31;148457.50;;;22.12;58.54
6853;BME280;3465;42.144;24.722;2023-07-31T02:01:56;148437.28;;;22.04;58.56
6853;BME280;3465;42.144;24.722;2023-07-31T02:04:21;148432.19;;;22.02;60.63
6853;BME280;3465;42.144;24.722;2023-07-31T02:06:47;148442.28;;;22.06;59.86
6853;BME280;3465;42.144;24.722;2023-07-31T02:09:12;148439.78;;;22.05;59.19
6853;BME280;3465;42.144;24.722;2023-07-31T02:11:38;148447.38;;;22.08;59.11
6853;BME280;3465;42.144;24.722;2023-07-31T02:14:03;148449.91;;;22.09;59.00
6853;BME280;3465;42.144;24.722;2023-07-31T02:16:28;148458.72;;;22.13;59.69
6853;BME280;3465;42.144;24.722;2023-07-31T02:18:54;148456.22;;;22.12;59.06
6853;BME280;3465;42.144;24.722;2023-07-31T02:21:19;148467.59;;;22.16;59.37
6853;BME280;3465;42.144;24.722;2023-07-31T02:23:45;148442.28;;;22.06;59.43
6853;BME280;3465;42.144;24.722;2023-07-31T02:26:10;148452.44;;;22.10;58.96
6853;BME280;3465;42.144;24.722;2023-07-31T02:28:35;148452.44;;;22.10;59.27
6853;BME280;3465;42.144;24.722;2023-07-31T02:31:01;148458.72;;;22.13;59.36
6853;BME280;3465;42.144;24.722;2023-07-31T02:33:26;148473.94;;;22.19;59.56
6853;BME280;3465;42.144;24.722;2023-07-31T02:35:52;148489.09;;;22.25;59.96
6853;BME280;3465;42.144;24.722;2023-07-31T02:38:17;148417.03;;;21.96;60.87
6853;BME280;3465;42.144;24.722;2023-07-31T02:40:43;148472.66;;;22.18;61.63
6853;BME280;3465;42.144;24.722;2023-07-31T02:43:08;148513.13;;;22.34;62.28
6853;BME280;3465;42.144;24.722;2023-07-31T02:45:34;148496.69;;;22.28;64.05
6853;BME280;3465;42.144;24.722;2023-07-31T02:48:00;148473.94;;;22.19;67.38
6853;BME280;3465;42.144;24.722;2023-07-31T02:50:25;148433.47;;;22.03;68.18
6853;BME280;3465;42.144;24.722;2023-07-31T02:52:51;148502.97;;;22.30;70.38
6853;BME280;3465;42.144;24.722;2023-07-31T02:55:16;148495.41;;;22.27;70.79
6853;BME280;3465;42.144;24.722;2023-07-31T02:57:41;148529.56;;;22.41;71.04
6853;BME280;3465;42.144;24.722;2023-07-31T03:00:07;148535.88;;;22.43;71.69
6853;BME280;3465;42.144;24.722;2023-07-31T03:02:33;148505.53;;;22.31;73.26
6853;BME280;3465;42.144;24.722;2023-07-31T03:04:59;148456.22;;;22.12;73.17
6853;BME280;3465;42.144;24.722;2023-07-31T03:07:24;148524.50;;;22.39;73.60
6853;BME280;3465;42.144;24.722;2023-07-31T03:09:50;148532.06;;;22.42;74.54
6853;BME280;3465;42.144;24.722;2023-07-31T03:12:15;148533.34;;;22.42;75.41
6853;BME280;3465;42.144;24.722;2023-07-31T03:14:41;148484.03;;;22.23;79.22
6853;BME280;3465;42.144;24.722;2023-07-31T03:17:07;148481.53;;;22.22;82.99
6853;BME280;3465;42.144;24.722;2023-07-31T03:19:33;148430.91;;;22.02;90.54
6853;BME280;3465;42.144;24.722;2023-07-31T03:22:01;148409.47;;;21.93;94.05
6853;BME280;3465;42.144;24.722;2023-07-31T03:24:28;148366.47;;;21.76;97.97
6853;BME280;3465;42.144;24.722;2023-07-31T03:26:54;148317.09;;;21.57;100.00
6853;BME280;3465;42.144;24.722;2023-07-31T03:29:19;148329.75;;;21.62;100.00
6853;BME280;3465;42.144;24.722;2023-07-31T03:31:44;148291.88;;;21.47;100.00
6853;BME280;3465;42.144;24.722;2023-07-31T03:34:10;148281.75;;;21.43;100.00
6853;BME280;3465;42.144;24.722;2023-07-31T03:36:35;148279.22;;;21.42;100.00
6853;BME280;3465;42.144;24.722;2023-07-31T03:39:00;148266.59;;;21.37;100.00
6853;BME280;3465;42.144;24.722;2023-07-31T03:41:26;148253.94;;;21.32;100.00
6853;BME280;3465;42.144;24.722;2023-07-31T03:43:51;148207.22;;;21.13;100.00
6853;BME280;3465;42.144;24.722;2023-07-31T03:46:17;148235.00;;;21.24;100.00
6853;BME280;3465;42.144;24.722;2023-07-31T03:48:42;148198.38;;;21.09;100.00
6853;BME280;3465;42.144;24.722;2023-07-31T03:51:08;148161.69;;;20.95;100.00
6853;BME280;3465;42.144;24.722;2023-07-31T03:53:33;148145.25;;;20.88;100.00
6853;BME280;3465;42.144;24.722;2023-07-31T03:55:59;148112.41;;;20.75;100.00
6853;BME280;3465;42.144;24.722;2023-07-31T03:58:24;148119.97;;;20.78;100.00
6853;BME280;3465;42.144;24.722;2023-07-31T04:00:50;148068.22;;;20.58;100.00
6853;BME280;3465;42.144;24.722;2023-07-31T04:03:15;148084.63;;;20.64;100.00
6853;BME280;3465;42.144;24.722;2023-07-31T04:05:41;148056.84;;;20.53;100.00
6853;BME280;3465;42.144;24.722;2023-07-31T04:08:06;148084.63;;;20.64;100.00
6853;BME280;3465;42.144;24.722;2023-07-31T04:10:31;148065.72;;;20.57;100.00
6853;BME280;3465;42.144;24.722;2023-07-31T04:12:59;148056.84;;;20.53;100.00
6853;BME280;3465;42.144;24.722;2023-07-31T04:15:24;148069.50;;;20.58;100.00
6853;BME280;3465;42.144;24.722;2023-07-31T04:17:50;148077.06;;;20.61;100.00
6853;BME280;3465;42.144;24.722;2023-07-31T04:20:15;148084.63;;;20.64;100.00
6853;BME280;3465;42.144;24.722;2023-07-31T04:22:40;148079.56;;;20.62;100.00
6853;BME280;3465;42.144;24.722;2023-07-31T04:25:06;148092.22;;;20.67;100.00
6853;BME280;3465;42.144;24.722;2023-07-31T04:27:32;148080.84;;;20.63;100.00
6853;BME280;3465;42.144;24.722;2023-07-31T04:29:57;148079.56;;;20.62;100.00
6853;BME280;3465;42.144;24.722;2023-07-31T04:32:22;148089.69;;;20.66;100.00
6853;BME280;3465;42.144;24.722;2023-07-31T04:34:48;148058.09;;;20.54;100.00
6853;BME280;3465;42.144;24.722;2023-07-31T04:37:13;148077.06;;;20.61;100.00
6853;BME280;3465;42.144;24.722;2023-07-31T04:39:39;148061.94;;;20.55;100.00
6853;BME280;3465;42.144;24.722;2023-07-31T04:42:04;148085.91;;;20.65;100.00
6853;BME280;3465;42.144;24.722;2023-07-31T04:44:30;148102.34;;;20.71;100.00
6853;BME280;3465;42.144;24.722;2023-07-31T04:46:55;148106.13;;;20.73;100.00
6853;BME280;3465;42.144;24.722;2023-07-31T04:49:21;148149.03;;;20.90;100.00
6853;BME280;3465;42.144;24.722;2023-07-31T04:51:47;148152.84;;;20.91;100.00
6853;BME280;3465;42.144;24.722;2023-07-31T04:54:12;148171.81;;;20.99;100.00
6853;BME280;3465;42.144;24.722;2023-07-31T04:56:40;148187.00;;;21.05;100.00
6853;BME280;3465;42.144;24.722;2023-07-31T04:59:06;148197.09;;;21.09;100.00
6853;BME280;3465;42.144;24.722;2023-07-31T05:01:32;148227.44;;;21.21;100.00
6853;BME280;3465;42.144;24.722;2023-07-31T05:03:57;148276.66;;;21.41;100.00
6853;BME280;3465;42.144;24.722;2023-07-31T05:06:23;148308.31;;;21.53;100.00
6853;BME280;3465;42.144;24.722;2023-07-31T05:08:48;148314.59;;;21.56;100.00
6853;BME280;3465;42.144;24.722;2023-07-31T05:11:13;148319.66;;;21.58;100.00
6853;BME280;3465;42.144;24.722;2023-07-31T05:13:39;148349.97;;;21.70;100.00
6853;BME280;3465;42.144;24.722;2023-07-31T05:16:04;148365.22;;;21.76;100.00
6853;BME280;3465;42.144;24.722;2023-07-31T05:18:30;148353.75;;;21.71;100.00
6853;BME280;3465;42.144;24.722;2023-07-31T05:20:55;148344.97;;;21.68;100.00
6853;BME280;3465;42.144;24.722;2023-07-31T05:23:20;148352.53;;;21.71;100.00
6853;BME280;3465;42.144;24.722;2023-07-31T05:25:46;148352.53;;;21.71;100.00
6853;BME280;3465;42.144;24.722;2023-07-31T05:28:12;148360.09;;;21.74;100.00
6853;BME280;3465;42.144;24.722;2023-07-31T05:30:37;148365.22;;;21.76;100.00
6853;BME280;3465;42.144;24.722;2023-07-31T05:33:03;148367.72;;;21.77;100.00
6853;BME280;3465;42.144;24.722;2023-07-31T05:35:28;148363.91;;;21.75;100.00
6853;BME280;3465;42.144;24.722;2023-07-31T05:37:54;148367.72;;;21.77;100.00
6853;BME280;3465;42.144;24.722;2023-07-31T05:40:19;148380.38;;;21.82;100.00
6853;BME280;3465;42.144;24.722;2023-07-31T05:42:45;148391.75;;;21.86;100.00
6853;BME280;3465;42.144;24.722;2023-07-31T05:45:10;148312.09;;;21.55;100.00
6853;BME280;3465;42.144;24.722;2023-07-31T05:47:36;148398.03;;;21.89;100.00
6853;BME280;3465;42.144;24.722;2023-07-31T05:50:01;148420.84;;;21.98;100.00
6853;BME280;3465;42.144;24.722;2023-07-31T05:52:27;148468.88;;;22.17;100.00
6853;BME280;3465;42.144;24.722;2023-07-31T05:54:54;148496.69;;;22.28;100.00
6853;BME280;3465;42.144;24.722;2023-07-31T05:57:19;148519.41;;;22.37;100.00
6853;BME280;3465;42.144;24.722;2023-07-31T05:59:45;148580.16;;;22.61;100.00
6853;BME280;3465;42.144;24.722;2023-07-31T06:02:10;148632.06;;;22.82;97.49
6853;BME280;3465;42.144;24.722;2023-07-31T06:04:36;148707.97;;;23.12;96.56
6853;BME280;3465;42.144;24.722;2023-07-31T06:07:01;148770.03;;;23.36;93.75
6853;BME280;3465;42.144;24.722;2023-07-31T06:09:28;148716.84;;;23.15;92.95
6853;BME280;3465;42.144;24.722;2023-07-31T06:11:53;148847.19;;;23.67;92.15
6853;BME280;3465;42.144;24.722;2023-07-31T06:14:19;148895.34;;;23.86;88.91
6853;BME280;3465;42.144;24.722;2023-07-31T06:16:44;148932.09;;;24.01;87.76
6853;BME280;3465;42.144;24.722;2023-07-31T06:19:10;148968.78;;;24.15;87.14
6853;BME280;3465;42.144;24.722;2023-07-31T06:21:35;149037.22;;;24.42;86.85
6853;BME280;3465;42.144;24.722;2023-07-31T06:24:03;149105.66;;;24.69;85.38
6853;BME280;3465;42.144;24.722;2023-07-31T06:26:28;149158.88;;;24.90;82.49
6853;BME280;3465;42.144;24.722;2023-07-31T06:28:54;149260.22;;;25.30;82.15
6853;BME280;3465;42.144;24.722;2023-07-31T06:31:19;149383.19;;;25.79;79.69
6853;BME280;3465;42.144;24.722;2023-07-31T06:33:51;149491.06;;;26.22;77.62
6853;BME280;3465;42.144;24.722;2023-07-31T06:36:17;149704.19;;;27.06;73.97
6853;BME280;3465;42.144;24.722;2023-07-31T06:38:42;149818.47;;;27.51;70.39
6853;BME280;3465;42.144;24.722;2023-07-31T06:41:08;150160.19;;;28.86;65.27
6853;BME280;3465;42.144;24.722;2023-07-31T06:43:34;150321.63;;;29.50;62.22
6853;BME280;3465;42.144;24.722;2023-07-31T06:46:05;150576.06;;;30.50;58.52
6853;BME280;3465;42.144;24.722;2023-07-31T06:48:31;150718.59;;;31.07;55.94
6853;BME280;3465;42.144;24.722;2023-07-31T06:50:56;150876.47;;;31.69;53.59
6853;BME280;3465;42.144;24.722;2023-07-31T06:53:21;150936.31;;;31.92;52.30
6853;BME280;3465;42.144;24.722;2023-07-31T06:55:47;151030.56;;;32.30;51.48
6853;BME280;3465;42.144;24.722;2023-07-31T06:58:13;151150.38;;;32.77;48.24
6853;BME280;3465;42.144;24.722;2023-07-31T07:00:38;151313.56;;;33.41;46.47
6853;BME280;3465;42.144;24.722;2023-07-31T07:03:04;151591.59;;;34.50;45.25
6853;BME280;3465;42.144;24.722;2023-07-31T07:05:29;151782.97;;;35.26;42.76
6853;BME280;3465;42.144;24.722;2023-07-31T07:07:55;151928.50;;;35.83;41.36
6853;BME280;3465;42.144;24.722;2023-07-31T07:10:20;151978.34;;;36.03;39.81
6853;BME280;3465;42.144;24.722;2023-07-31T07:12:46;151761.28;;;35.17;40.36
6853;BME280;3465;42.144;24.722;2023-07-31T07:15:11;151603.06;;;34.55;42.24
6853;BME280;3465;42.144;24.722;2023-07-31T07:17:37;151285.47;;;33.30;46.03
6853;BME280;3465;42.144;24.722;2023-07-31T07:20:02;151418.06;;;33.82;45.27
6853;BME280;3465;42.144;24.722;2023-07-31T07:22:28;151734.50;;;35.07;42.41
6853;BME280;3465;42.144;24.722;2023-07-31T07:24:54;151790.63;;;35.29;41.28
6853;BME280;3465;42.144;24.722;2023-07-31T07:27:20;152012.84;;;36.16;39.66
6853;BME280;3465;42.144;24.722;2023-07-31T07:29:46;152347.59;;;37.48;37.31
6853;BME280;3465;42.144;24.722;2023-07-31T07:32:12;152327.16;;;37.40;37.11
6853;BME280;3465;42.144;24.722;2023-07-31T07:34:37;152411.53;;;37.73;36.39
6853;BME280;3465;42.144;24.722;2023-07-31T07:37:03;152356.56;;;37.51;37.21
6853;BME280;3465;42.144;24.722;2023-07-31T07:39:28;152355.25;;;37.51;36.55
6853;BME280;3465;42.144;24.722;2023-07-31T07:41:54;152126.50;;;36.61;37.21
6853;BME280;3465;42.144;24.722;2023-07-31T07:44:19;151774.03;;;35.22;39.47
6853;BME280;3465;42.144;24.722;2023-07-31T07:46:45;151223.03;;;33.05;44.76
6853;BME280;3465;42.144;24.722;2023-07-31T07:49:10;151029.31;;;32.29;46.53
6853;BME280;3465;42.144;24.722;2023-07-31T07:51:35;151155.47;;;32.79;45.83
6853;BME280;3465;42.144;24.722;2023-07-31T07:54:02;151475.47;;;34.05;43.58
6853;BME280;3465;42.144;24.722;2023-07-31T07:56:27;151840.47;;;35.48;39.99
6853;BME280;3465;42.144;24.722;2023-07-31T07:58:53;151798.28;;;35.32;39.48
6853;BME280;3465;42.144;24.722;2023-07-31T08:01:19;152048.56;;;36.30;38.26
6853;BME280;3465;42.144;24.722;2023-07-31T08:03:45;151910.66;;;35.76;38.73
6853;BME280;3465;42.144;24.722;2023-07-31T08:06:10;151997.47;;;36.10;38.74
6853;BME280;3465;42.144;24.722;2023-07-31T08:08:36;152039.63;;;36.27;37.97
6853;BME280;3465;42.144;24.722;2023-07-31T08:11:02;152414.09;;;37.74;35.03
6853;BME280;3465;42.144;24.722;2023-07-31T08:13:27;152634.06;;;38.60;33.57
6853;BME280;3465;42.144;24.722;2023-07-31T08:15:53;152895.03;;;39.62;32.69
6853;BME280;3465;42.144;24.722;2023-07-31T08:18:19;153185.69;;;40.76;30.62
6853;BME280;3465;42.144;24.722;2023-07-31T08:20:45;153420.13;;;41.68;29.30
6853;BME280;3465;42.144;24.722;2023-07-31T08:23:10;153156.19;;;40.65;29.66
6853;BME280;3465;42.144;24.722;2023-07-31T08:25:36;152549.59;;;38.27;32.63
6853;BME280;3465;42.144;24.722;2023-07-31T08:28:02;151866.00;;;35.58;36.39
6853;BME280;3465;42.144;24.722;2023-07-31T08:30:28;151624.75;;;34.63;38.95
6853;BME280;3465;42.144;24.722;2023-07-31T08:32:53;151811.09;;;35.37;38.16
6853;BME280;3465;42.144;24.722;2023-07-31T08:35:19;151993.66;;;36.09;36.88
6853;BME280;3465;42.144;24.722;2023-07-31T08:37:44;152189.16;;;36.85;35.76
6853;BME280;3465;42.144;24.722;2023-07-31T08:40:10;152446.06;;;37.86;33.37
6853;BME280;3465;42.144;24.722;2023-07-31T08:42:44;152484.34;;;38.01;32.74
6853;BME280;3465;42.144;24.722;2023-07-31T08:45:17;152581.59;;;38.39;32.65
6853;BME280;3465;42.144;24.722;2023-07-31T08:47:50;152356.56;;;37.51;33.67
6853;BME280;3465;42.144;24.722;2023-07-31T08:50:18;151993.66;;;36.09;35.67
6853;BME280;3465;42.144;24.722;2023-07-31T08:52:45;151850.63;;;35.52;36.62
6853;BME280;3465;42.144;24.722;2023-07-31T08:55:10;151775.34;;;35.23;37.54
6853;BME280;3465;42.144;24.722;2023-07-31T08:57:37;151864.72;;;35.58;36.69
6853;BME280;3465;42.144;24.722;2023-07-31T09:00:07;152173.78;;;36.79;34.48
6853;BME280;3465;42.144;24.722;2023-07-31T09:02:53;152300.31;;;37.29;33.39
6853;BME280;3465;42.144;24.722;2023-07-31T09:05:20;152561.13;;;38.31;31.38
6853;BME280;3465;42.144;24.722;2023-07-31T09:07:47;152685.16;;;38.80;30.55
6853;BME280;3465;42.144;24.722;2023-07-31T09:10:14;153047.38;;;40.22;28.74
6853;BME280;3465;42.144;24.722;2023-07-31T09:12:40;153307.34;;;41.24;27.53
6853;BME280;3465;42.144;24.722;2023-07-31T09:15:06;153549.53;;;42.19;26.21
6853;BME280;3465;42.144;24.722;2023-07-31T09:17:33;153614.94;;;42.44;25.79
6853;BME280;3465;42.144;24.722;2023-07-31T09:20:19;153577.72;;;42.30;25.99
6853;BME280;3465;42.144;24.722;2023-07-31T09:22:46;153509.84;;;42.03;25.64
6853;BME280;3465;42.144;24.722;2023-07-31T09:25:17;153056.34;;;40.26;27.52
6853;BME280;3465;42.144;24.722;2023-07-31T09:27:52;152816.97;;;39.32;28.95
6853;BME280;3465;42.144;24.722;2023-07-31T09:30:18;152474.16;;;37.97;30.64
6853;BME280;3465;42.144;24.722;2023-07-31T09:32:45;152762.00;;;39.10;29.41
6853;BME280;3465;42.144;24.722;2023-07-31T09:35:19;152902.72;;;39.65;27.24
6853;BME280;3465;42.144;24.722;2023-07-31T09:38:05;153144.69;;;40.60;27.11
6853;BME280;3465;42.144;24.722;2023-07-31T09:40:33;153406.03;;;41.63;25.94
6853;BME280;3465;42.144;24.722;2023-07-31T09:43:01;153521.38;;;42.08;25.07
6853;BME280;3465;42.144;24.722;2023-07-31T09:45:27;153625.22;;;42.48;24.68
6853;BME280;3465;42.144;24.722;2023-07-31T09:47:53;153753.44;;;42.99;24.14
6853;BME280;3465;42.144;24.722;2023-07-31T09:50:21;153879.09;;;43.48;23.62
6853;BME280;3465;42.144;24.722;2023-07-31T09:52:47;153926.56;;;43.66;22.94
6853;BME280;3465;42.144;24.722;2023-07-31T09:55:12;153997.13;;;43.94;23.25
6853;BME280;3465;42.144;24.722;2023-07-31T09:57:45;153415.00;;;41.66;24.87
6853;BME280;3465;42.144;24.722;2023-07-31T10:00:13;153000.00;;;40.04;27.31
6853;BME280;3465;42.144;24.722;2023-07-31T10:02:39;152802.91;;;39.26;28.31
6853;BME280;3465;42.144;24.722;2023-07-31T10:05:06;152511.22;;;38.12;29.65
6853;BME280;3465;42.144;24.722;2023-07-31T10:07:37;152299.06;;;37.28;29.99
6853;BME280;3465;42.144;24.722;2023-07-31T10:10:04;152572.63;;;38.36;29.65
6853;BME280;3465;42.144;24.722;2023-07-31T10:12:32;152870.75;;;39.53;27.84
6853;BME280;3465;42.144;24.722;2023-07-31T10:14:59;153000.00;;;40.04;27.78
6853;BME280;3465;42.144;24.722;2023-07-31T10:17:25;153299.69;;;41.21;26.12
6853;BME280;3465;42.144;24.722;2023-07-31T10:19:53;153494.47;;;41.97;25.39
6853;BME280;3465;42.144;24.722;2023-07-31T10:22:19;153720.09;;;42.86;24.50
6853;BME280;3465;42.144;24.722;2023-07-31T10:24:46;153888.13;;;43.51;23.37
6853;BME280;3465;42.144;24.722;2023-07-31T10:27:12;153825.25;;;43.27;23.89
6853;BME280;3465;42.144;24.722;2023-07-31T10:29:38;153749.59;;;42.97;24.05
6853;BME280;3465;42.144;24.722;2023-07-31T10:32:09;153779.03;;;43.09;23.75
6853;BME280;3465;42.144;24.722;2023-07-31T10:34:39;153873.94;;;43.46;23.70
6853;BME280;3465;42.144;24.722;2023-07-31T10:37:36;153889.41;;;43.52;23.85
6853;BME280;3465;42.144;24.722;2023-07-31T10:40:11;153972.72;;;43.85;23.29
6853;BME280;3465;42.144;24.722;2023-07-31T10:42:48;153739.31;;;42.93;23.20
6853;BME280;3465;42.144;24.722;2023-07-31T10:45:24;153386.81;;;41.55;25.25
6853;BME280;3465;42.144;24.722;2023-07-31T10:47:59;153304.81;;;41.23;25.76
6853;BME280;3465;42.144;24.722;2023-07-31T10:50:26;153338.13;;;41.36;24.70
6853;BME280;3465;42.144;24.722;2023-07-31T10:52:56;153406.03;;;41.63;24.53
6853;BME280;3465;42.144;24.722;2023-07-31T10:55:40;153580.31;;;42.31;23.73
6853;BME280;3465;42.144;24.722;2023-07-31T10:58:13;153681.59;;;42.71;23.13
6853;BME280;3465;42.144;24.722;2023-07-31T11:00:43;153648.25;;;42.58;23.64
6853;BME280;3465;42.144;24.722;2023-07-31T11:05:49;153705.97;;;42.80;22.74
6853;BME280;3465;42.144;24.722;2023-07-31T11:11:04;153825.25;;;43.27;22.00
6853;BME280;3465;42.144;24.722;2023-07-31T11:13:50;153770.09;;;43.05;22.21
6853;BME280;3465;42.144;24.722;2023-07-31T11:16:19;153322.75;;;41.30;24.04
6853;BME280;3465;42.144;24.722;2023-07-31T11:18:46;152357.81;;;37.52;30.64
6853;BME280;3465;42.144;24.722;2023-07-31T11:21:17;151613.25;;;34.59;35.98
6853;BME280;3465;42.144;24.722;2023-07-31T11:23:47;151235.78;;;33.10;39.55
6853;BME280;3465;42.144;24.722;2023-07-31T11:26:14;151056.09;;;32.40;41.67
6853;BME280;3465;42.144;24.722;2023-07-31T11:28:40;150837.00;;;31.53;43.75
6853;BME280;3465;42.144;24.722;2023-07-31T11:31:08;150781.03;;;31.31;45.10
6853;BME280;3465;42.144;24.722;2023-07-31T11:33:34;151077.75;;;32.48;43.03
6853;BME280;3465;42.144;24.722;2023-07-31T11:35:59;151294.41;;;33.33;40.35
6853;BME280;3465;42.144;24.722;2023-07-31T11:38:27;151485.69;;;34.09;37.90
6853;BME280;3465;42.144;24.722;2023-07-31T11:40:54;151529.03;;;34.26;38.17
6853;BME280;3465;42.144;24.722;2023-07-31T11:43:21;151654.06;;;34.75;36.88
6853;BME280;3465;42.144;24.722;2023-07-31T11:45:55;151771.50;;;35.21;36.83
6853;BME280;3465;42.144;24.722;2023-07-31T11:48:25;151608.19;;;34.57;37.70
6853;BME280;3465;42.144;24.722;2023-07-31T11:50:53;151453.84;;;33.96;38.08
6853;BME280;3465;42.144;24.722;2023-07-31T11:53:31;151490.78;;;34.11;38.39
6853;BME280;3465;42.144;24.722;2023-07-31T11:56:00;151503.53;;;34.16;38.04
6853;BME280;3465;42.144;24.722;2023-07-31T11:58:28;151543.09;;;34.31;37.75
6853;BME280;3465;42.144;24.722;2023-07-31T12:00:54;151490.78;;;34.11;38.50
6853;BME280;3465;42.144;24.722;2023-07-31T12:03:20;151414.22;;;33.81;38.63
6853;BME280;3465;42.144;24.722;2023-07-31T12:05:47;151230.66;;;33.08;39.63
6853;BME280;3465;42.144;24.722;2023-07-31T12:08:13;151124.88;;;32.67;40.79
6853;BME280;3465;42.144;24.722;2023-07-31T12:10:39;151168.22;;;32.84;40.44
6853;BME280;3465;42.144;24.722;2023-07-31T12:13:11;151460.19;;;33.99;38.69
6853;BME280;3465;42.144;24.722;2023-07-31T12:15:41;151652.81;;;34.75;36.46
6853;BME280;3465;42.144;24.722;2023-07-31T12:18:12;151530.34;;;34.26;36.90
6853;BME280;3465;42.144;24.722;2023-07-31T12:20:46;151515.03;;;34.20;37.71
6853;BME280;3465;42.144;24.722;2023-07-31T12:23:14;151508.63;;;34.18;38.05
6853;BME280;3465;42.144;24.722;2023-07-31T12:25:40;151569.91;;;34.42;36.64
6853;BME280;3465;42.144;24.722;2023-07-31T12:28:06;151780.44;;;35.25;36.02
6853;BME280;3465;42.144;24.722;2023-07-31T12:30:36;151729.41;;;35.05;35.74
6853;BME280;3465;42.144;24.722;2023-07-31T12:33:13;151618.34;;;34.61;35.45
6853;BME280;3465;42.144;24.722;2023-07-31T12:35:42;151534.16;;;34.28;35.46
6853;BME280;3465;42.144;24.722;2023-07-31T12:38:08;151400.25;;;33.75;36.51
6853;BME280;3465;42.144;24.722;2023-07-31T12:40:37;151355.63;;;33.58;35.92
6853;BME280;3465;42.144;24.722;2023-07-31T12:43:03;151332.66;;;33.49;36.31
6853;BME280;3465;42.144;24.722;2023-07-31T12:45:30;151224.31;;;33.06;35.27
6853;BME280;3465;42.144;24.722;2023-07-31T12:47:56;151140.16;;;32.73;36.57
6853;BME280;3465;42.144;24.722;2023-07-31T12:50:22;151104.50;;;32.59;36.97
6853;BME280;3465;42.144;24.722;2023-07-31T12:52:48;151145.25;;;32.75;36.97
6853;BME280;3465;42.144;24.722;2023-07-31T12:55:14;151188.66;;;32.92;36.28
6853;BME280;3465;42.144;24.722;2023-07-31T12:57:40;151235.78;;;33.10;36.71
6853;BME280;3465;42.144;24.722;2023-07-31T13:00:07;151235.78;;;33.10;36.30
6853;BME280;3465;42.144;24.722;2023-07-31T13:02:33;151214.09;;;33.02;36.56
6853;BME280;3465;42.144;24.722;2023-07-31T13:04:58;151240.88;;;33.12;36.70
6853;BME280;3465;42.144;24.722;2023-07-31T13:07:24;151166.94;;;32.83;36.88
6853;BME280;3465;42.144;24.722;2023-07-31T13:09:50;151126.16;;;32.67;38.14